Time;durP1;ratioP1;P1;durP2;ratioP2;P2;SDS_P1;SDS_P2;PMS_P1;PMS_P2;Temp;Humidity;BMP_temperature;BMP_pressure;BME280_temperature;BME280_humidity;BME280_pressure;Samples;Min_cycle;Max_cycle;Signal;HPM_P1;HPM_P2
2023/12/03 00:02:19;;;;;;;42.78;13.30;;;1.80;99.90;;;;;;5114151;28;20055;-75
2023/12/03 00:04:45;;;;;;;34.25;12.95;;;1.80;99.90;;;;;;5112926;28;20035;-74
2023/12/03 00:07:12;;;;;;;31.02;13.43;;;1.80;99.90;;;;;;5114183;28;20016;-75
2023/12/03 00:09:37;;;;;;;33.25;12.82;;;1.80;99.90;;;;;;5114010;28;20027;-75
2023/12/03 00:12:05;;;;;;;37.83;13.18;;;1.80;99.90;;;;;;5114111;28;20425;-75
2023/12/03 00:14:31;;;;;;;32.75;11.75;;;1.80;99.90;;;;;;5113860;28;20050;-75
2023/12/03 00:16:56;;;;;;;37.53;12.60;;;1.90;99.90;;;;;;5113807;28;20032;-74
2023/12/03 00:19:22;;;;;;;39.45;14.00;;;1.90;99.90;;;;;;5113895;28;20083;-73
2023/12/03 00:21:47;;;;;;;38.25;13.48;;;1.90;99.90;;;;;;5113629;28;20032;-75
2023/12/03 00:24:13;;;;;;;36.10;12.02;;;2.00;99.90;;;;;;5112641;28;20055;-74
2023/12/03 00:26:39;;;;;;;40.40;13.48;;;2.00;99.90;;;;;;5113343;28;20115;-75
2023/12/03 00:29:04;;;;;;;39.38;14.95;;;2.00;99.90;;;;;;5113385;28;20032;-74
2023/12/03 00:31:30;;;;;;;40.58;14.32;;;2.00;99.90;;;;;;5113513;28;20058;-74
2023/12/03 00:33:55;;;;;;;42.05;13.25;;;2.10;99.90;;;;;;5113507;28;20029;-74
2023/12/03 00:36:21;;;;;;;36.17;11.93;;;2.10;99.90;;;;;;5113454;28;20062;-73
2023/12/03 00:38:47;;;;;;;36.65;12.25;;;2.10;99.90;;;;;;5113537;28;20079;-74
2023/12/03 00:41:12;;;;;;;35.65;13.35;;;2.10;99.90;;;;;;5113438;28;20508;-75
2023/12/03 00:43:38;;;;;;;35.53;13.38;;;2.10;99.90;;;;;;5113392;28;20036;-74
2023/12/03 00:46:03;;;;;;;34.45;12.32;;;2.20;99.90;;;;;;5113221;28;20032;-74
2023/12/03 00:48:29;;;;;;;32.30;11.68;;;2.20;99.90;;;;;;5113313;28;20034;-75
2023/12/03 00:50:55;;;;;;;31.52;13.18;;;2.20;99.90;;;;;;5112216;28;20028;-74
2023/12/03 00:53:21;;;;;;;36.58;12.18;;;2.30;99.90;;;;;;5113161;28;20084;-73
2023/12/03 00:55:46;;;;;;;36.63;12.85;;;2.30;99.90;;;;;;5113204;28;20039;-73
2023/12/03 00:58:12;;;;;;;34.63;11.02;;;2.30;99.90;;;;;;5113156;28;20055;-72
2023/12/03 01:00:37;;;;;;;31.90;12.80;;;2.30;99.90;;;;;;5113028;28;20039;-72
2023/12/03 01:03:03;;;;;;;31.92;11.73;;;2.30;99.90;;;;;;5112069;28;20028;-73
2023/12/03 01:05:28;;;;;;;36.90;13.88;;;2.30;99.90;;;;;;5113068;28;20032;-72
2023/12/03 01:07:54;;;;;;;37.80;13.20;;;2.40;99.90;;;;;;5113049;28;20081;-73
2023/12/03 01:10:20;;;;;;;35.53;12.05;;;2.30;99.90;;;;;;5112950;28;20028;-74
2023/12/03 01:12:45;;;;;;;32.17;11.85;;;2.40;99.90;;;;;;5112440;28;20028;-73
2023/12/03 01:15:11;;;;;;;32.60;11.65;;;2.40;99.90;;;;;;5112796;28;20042;-72
2023/12/03 01:17:36;;;;;;;28.73;11.02;;;2.40;99.90;;;;;;5112890;28;20047;-72
2023/12/03 01:20:02;;;;;;;37.72;12.55;;;2.40;99.90;;;;;;5112751;28;20032;-73
2023/12/03 01:22:28;;;;;;;28.20;10.85;;;2.40;99.90;;;;;;5112800;28;20054;-73
2023/12/03 01:24:54;;;;;;;28.02;11.02;;;2.50;99.90;;;;;;5112614;28;20039;-73
2023/12/03 01:27:19;;;;;;;28.58;10.60;;;2.50;99.90;;;;;;5112668;28;20059;-75
2023/12/03 01:29:45;;;;;;;28.65;10.43;;;2.50;99.90;;;;;;5112453;28;20279;-74
2023/12/03 01:32:10;;;;;;;36.53;11.63;;;2.50;99.90;;;;;;5112719;28;20052;-73
2023/12/03 01:34:36;;;;;;;29.73;10.57;;;2.50;99.90;;;;;;5111739;28;20016;-73
2023/12/03 01:37:02;;;;;;;27.75;10.68;;;2.60;99.90;;;;;;5112656;28;20028;-73
2023/12/03 01:39:27;;;;;;;28.88;10.70;;;2.60;99.90;;;;;;5112667;28;20020;-73
2023/12/03 01:41:53;;;;;;;34.80;12.57;;;2.70;99.90;;;;;;5112625;28;20028;-74
2023/12/03 01:44:19;;;;;;;30.92;11.73;;;2.70;99.90;;;;;;5112439;28;20211;-74
2023/12/03 01:46:49;;;;;;;25.83;10.10;;;2.70;99.90;;;;;;5112534;28;20124;-74
2023/12/03 01:49:15;;;;;;;30.27;10.85;;;2.70;99.90;;;;;;5112457;28;20047;-74
2023/12/03 01:51:41;;;;;;;28.27;10.82;;;2.70;99.90;;;;;;5112468;28;20030;-74
2023/12/03 01:54:07;;;;;;;33.00;11.50;;;2.80;99.90;;;;;;5112353;28;20039;-74
2023/12/03 01:56:32;;;;;;;31.90;10.45;;;2.80;99.90;;;;;;5111428;28;20034;-74
2023/12/03 01:58:58;;;;;;;25.77;9.38;;;2.80;99.90;;;;;;5112287;28;20056;-74
2023/12/03 02:01:24;;;;;;;32.10;10.55;;;2.80;99.90;;;;;;5111376;28;20047;-75
2023/12/03 02:03:49;;;;;;;30.50;11.40;;;2.90;99.90;;;;;;5112321;28;20079;-74
2023/12/03 02:06:15;;;;;;;25.48;10.10;;;2.90;99.90;;;;;;5112289;28;20094;-73
2023/12/03 02:08:41;;;;;;;31.02;10.23;;;2.90;99.90;;;;;;5111443;28;20020;-74
2023/12/03 02:11:07;;;;;;;27.77;11.05;;;2.90;99.90;;;;;;5111453;28;20032;-74
2023/12/03 02:13:37;;;;;;;27.00;10.73;;;3.00;99.90;;;;;;5112305;28;20031;-75
2023/12/03 02:16:03;;;;;;;28.98;11.30;;;3.00;99.90;;;;;;5112297;28;20031;-73
2023/12/03 02:18:29;;;;;;;32.03;11.77;;;3.00;99.90;;;;;;5112332;28;20031;-74
2023/12/03 02:20:55;;;;;;;28.42;11.73;;;3.00;99.90;;;;;;5112208;28;20024;-75
2023/12/03 02:23:21;;;;;;;27.58;11.80;;;3.00;99.90;;;;;;5112304;28;20032;-74
2023/12/03 02:25:51;;;;;;;28.73;9.82;;;3.00;99.90;;;;;;5115768;28;20047;-74
2023/12/03 02:28:17;;;;;;;27.80;10.70;;;3.00;99.90;;;;;;5116053;28;20036;-75
2023/12/03 02:30:43;;;;;;;34.13;12.00;;;3.10;99.90;;;;;;5115718;28;20023;-75
2023/12/03 02:33:09;;;;;;;27.30;11.23;;;3.10;99.90;;;;;;5116023;28;20021;-75
2023/12/03 02:35:34;;;;;;;32.83;12.23;;;3.10;99.90;;;;;;5115864;28;20036;-75
2023/12/03 02:38:00;;;;;;;26.25;11.60;;;3.10;99.90;;;;;;5115883;28;20036;-75
2023/12/03 02:40:26;;;;;;;30.17;12.55;;;3.10;99.90;;;;;;5115786;28;20036;-73
2023/12/03 02:42:51;;;;;;;28.45;12.30;;;3.10;99.90;;;;;;5115838;28;20028;-73
2023/12/03 02:45:17;;;;;;;25.38;12.23;;;3.10;99.90;;;;;;5115707;28;20036;-73
2023/12/03 02:47:43;;;;;;;28.13;12.55;;;3.10;99.90;;;;;;5115711;28;20025;-73
2023/12/03 02:50:08;;;;;;;28.45;12.85;;;3.10;99.90;;;;;;5115622;28;20027;-72
2023/12/03 02:52:34;;;;;;;31.80;12.82;;;3.10;99.90;;;;;;5115574;28;20411;-72
2023/12/03 02:55:00;;;;;;;28.80;12.63;;;3.10;99.90;;;;;;5115447;28;20031;-72
2023/12/03 02:57:26;;;;;;;28.55;12.23;;;3.10;99.90;;;;;;5115476;28;20036;-72
2023/12/03 02:59:51;;;;;;;31.25;13.20;;;3.10;99.90;;;;;;5115215;28;20026;-72
2023/12/03 03:02:17;;;;;;;32.72;13.10;;;3.10;99.90;;;;;;5115459;28;20482;-72
2023/12/03 03:04:43;;;;;;;30.27;11.93;;;3.10;99.90;;;;;;5115325;28;20028;-72
2023/12/03 03:07:08;;;;;;;35.33;12.15;;;3.10;99.90;;;;;;5115396;28;20028;-71
2023/12/03 03:09:34;;;;;;;28.23;11.95;;;3.00;99.90;;;;;;5115191;28;20066;-72
2023/12/03 03:11:59;;;;;;;29.45;11.77;;;3.00;99.90;;;;;;5115201;28;20548;-72
2023/12/03 03:14:25;;;;;;;27.80;11.95;;;3.10;99.90;;;;;;5115266;28;20028;-72
2023/12/03 03:16:51;;;;;;;30.70;12.65;;;3.00;99.90;;;;;;5115260;28;20024;-72
2023/12/03 03:19:16;;;;;;;30.85;12.70;;;3.00;99.90;;;;;;5115093;28;20028;-71
2023/12/03 03:21:42;;;;;;;30.70;12.38;;;2.90;99.90;;;;;;5113990;28;20024;-70
2023/12/03 03:24:08;;;;;;;28.60;12.43;;;2.90;99.90;;;;;;5114881;28;20036;-71
2023/12/03 03:26:33;;;;;;;23.55;11.38;;;2.80;99.90;;;;;;5114759;28;20150;-71
2023/12/03 03:28:59;;;;;;;33.78;12.30;;;2.80;99.90;;;;;;5114615;28;20028;-71
2023/12/03 03:31:25;;;;;;;26.40;12.05;;;2.80;99.90;;;;;;5114872;28;20024;-71
2023/12/03 03:33:51;;;;;;;27.73;12.70;;;2.70;99.90;;;;;;5114823;28;20493;-70
2023/12/03 03:36:17;;;;;;;29.65;12.43;;;2.70;99.90;;;;;;5114335;28;20039;-71
2023/12/03 03:38:45;;;;;;;27.70;12.27;;;2.60;99.90;;;;;;5114513;28;20077;-71
2023/12/03 03:41:11;;;;;;;27.33;11.73;;;2.60;99.90;;;;;;5114547;28;20055;-71
2023/12/03 03:43:37;;;;;;;28.50;12.45;;;2.60;99.90;;;;;;5114541;28;20017;-70
2023/12/03 03:46:03;;;;;;;32.95;11.80;;;2.50;99.90;;;;;;5114408;28;20039;-71
2023/12/03 03:48:29;;;;;;;31.85;12.02;;;2.50;99.90;;;;;;5114503;28;20027;-70
2023/12/03 03:50:54;;;;;;;28.42;12.30;;;2.50;99.90;;;;;;5114412;28;20092;-70
2023/12/03 03:53:20;;;;;;;26.45;11.95;;;2.50;99.90;;;;;;5114327;28;20032;-71
2023/12/03 03:55:46;;;;;;;30.50;13.02;;;2.40;99.90;;;;;;5114376;28;20099;-70
2023/12/03 03:58:11;;;;;;;29.52;13.05;;;2.40;99.90;;;;;;5114354;28;20121;-71
2023/12/03 04:00:38;;;;;;;33.20;13.15;;;2.40;99.90;;;;;;5114134;28;20050;-71
2023/12/03 04:03:04;;;;;;;32.13;12.32;;;2.40;99.90;;;;;;5113389;28;20024;-70
2023/12/03 04:05:29;;;;;;;29.98;11.52;;;2.40;99.90;;;;;;5114074;28;20055;-70
2023/12/03 04:07:55;;;;;;;30.35;13.15;;;2.30;99.90;;;;;;5114097;28;20019;-71
2023/12/03 04:10:21;;;;;;;29.95;12.15;;;2.30;99.90;;;;;;5113138;28;20051;-71
2023/12/03 04:12:47;;;;;;;26.67;11.57;;;2.20;99.90;;;;;;5114077;28;20016;-71
2023/12/03 04:15:13;;;;;;;24.20;11.40;;;2.20;99.90;;;;;;5114033;28;20035;-71
2023/12/03 04:17:39;;;;;;;31.20;13.00;;;2.20;99.90;;;;;;5114039;28;20028;-71
2023/12/03 04:20:06;;;;;;;27.30;13.18;;;2.10;99.90;;;;;;5113787;28;20097;-71
2023/12/03 04:22:32;;;;;;;28.58;12.10;;;2.10;99.90;;;;;;5113954;28;20032;-70
2023/12/03 04:24:58;;;;;;;30.70;12.32;;;2.10;99.90;;;;;;5113734;28;20038;-70
2023/12/03 04:27:24;;;;;;;36.88;12.93;;;2.10;99.90;;;;;;5113688;28;20052;-70
2023/12/03 04:29:49;;;;;;;30.30;12.00;;;2.10;99.90;;;;;;5113432;28;20031;-71
2023/12/03 04:32:15;;;;;;;34.88;13.70;;;2.10;99.90;;;;;;5112684;28;20039;-71
2023/12/03 04:34:41;;;;;;;29.95;12.52;;;2.10;99.90;;;;;;5113591;28;20042;-71
2023/12/03 04:37:06;;;;;;;26.02;11.50;;;2.10;99.90;;;;;;5113615;28;20021;-70
2023/12/03 04:39:32;;;;;;;30.88;12.43;;;2.00;99.90;;;;;;5113513;28;20042;-71
2023/12/03 04:41:57;;;;;;;29.95;11.40;;;1.90;99.90;;;;;;5112552;28;20039;-70
2023/12/03 04:44:23;;;;;;;35.17;12.77;;;1.90;99.90;;;;;;5113479;28;20021;-70
2023/12/03 04:46:49;;;;;;;30.88;12.52;;;1.80;99.90;;;;;;5111530;28;20047;-70
2023/12/03 04:49:14;;;;;;;29.05;12.45;;;1.70;99.90;;;;;;5113236;28;20025;-70
2023/12/03 04:51:40;;;;;;;32.50;12.00;;;1.70;99.90;;;;;;5113236;28;20024;-70
2023/12/03 04:54:06;;;;;;;33.22;11.57;;;1.60;99.90;;;;;;5113302;28;20078;-71
2023/12/03 04:56:31;;;;;;;27.83;11.35;;;1.60;99.90;;;;;;5112261;28;20095;-71
2023/12/03 04:58:57;;;;;;;30.30;13.85;;;1.50;99.90;;;;;;5113015;28;20028;-70
2023/12/03 05:01:23;;;;;;;29.58;12.05;;;1.50;99.90;;;;;;5113228;28;20028;-70
2023/12/03 05:03:49;;;;;;;26.60;11.07;;;1.50;99.90;;;;;;5113054;28;20024;-71
2023/12/03 05:06:14;;;;;;;30.30;11.95;;;1.40;99.90;;;;;;5112907;28;20029;-71
2023/12/03 05:08:40;;;;;;;30.33;11.20;;;1.40;99.90;;;;;;5113053;28;20024;-70
2023/12/03 05:11:06;;;;;;;31.33;12.50;;;1.40;99.90;;;;;;5113017;28;20012;-71
2023/12/03 05:13:34;;;;;;;33.20;13.02;;;1.40;99.90;;;;;;5113032;28;20048;-71
2023/12/03 05:16:01;;;;;;;34.22;13.18;;;1.30;99.90;;;;;;5112978;28;20027;-71
2023/12/03 05:18:27;;;;;;;26.52;11.95;;;1.30;99.90;;;;;;5112984;28;20024;-71
2023/12/03 05:20:52;;;;;;;30.00;11.60;;;1.30;99.90;;;;;;5112751;28;20517;-71
2023/12/03 05:23:18;;;;;;;30.92;12.82;;;1.30;99.90;;;;;;5112785;28;20058;-70
2023/12/03 05:25:44;;;;;;;27.13;10.77;;;1.30;99.90;;;;;;5112627;28;20032;-71
2023/12/03 05:28:09;;;;;;;33.88;13.48;;;1.20;99.90;;;;;;5112631;28;20044;-70
2023/12/03 05:30:35;;;;;;;29.13;12.05;;;1.20;99.90;;;;;;5112546;28;20038;-70
2023/12/03 05:33:01;;;;;;;31.05;13.02;;;1.20;99.90;;;;;;5112719;28;20024;-72
2023/12/03 05:35:26;;;;;;;28.77;12.13;;;1.20;99.90;;;;;;5112608;28;20028;-71
2023/12/03 05:37:52;;;;;;;30.77;11.10;;;1.20;99.90;;;;;;5112515;28;20043;-71
2023/12/03 05:40:18;;;;;;;29.48;12.05;;;1.20;99.90;;;;;;5112553;28;20051;-72
2023/12/03 05:42:44;;;;;;;29.42;11.27;;;1.20;99.90;;;;;;5112607;28;20067;-71
2023/12/03 05:45:10;;;;;;;28.60;11.73;;;1.20;99.90;;;;;;5112507;28;20028;-71
2023/12/03 05:47:36;;;;;;;26.42;10.50;;;1.10;99.90;;;;;;5112593;28;20049;-71
2023/12/03 05:50:02;;;;;;;30.15;11.38;;;1.10;99.90;;;;;;5112384;28;20066;-71
2023/12/03 05:52:28;;;;;;;24.40;10.82;;;1.10;99.90;;;;;;5112502;28;20462;-71
2023/12/03 05:54:55;;;;;;;33.22;11.70;;;1.10;99.90;;;;;;5112445;28;20043;-71
2023/12/03 05:57:20;;;;;;;32.60;12.07;;;1.00;99.90;;;;;;5112669;28;20048;-72
2023/12/03 05:59:46;;;;;;;26.65;10.45;;;1.00;99.90;;;;;;5116471;28;20016;-71
2023/12/03 06:02:13;;;;;;;33.50;13.00;;;1.00;99.90;;;;;;5116596;28;20382;-70
2023/12/03 06:04:39;;;;;;;30.42;11.20;;;0.90;99.90;;;;;;5116393;28;20031;-72
2023/12/03 06:07:05;;;;;;;30.95;12.23;;;0.90;99.90;;;;;;5116560;28;20020;-72
2023/12/03 06:09:30;;;;;;;27.10;10.15;;;0.90;99.90;;;;;;5116507;28;20035;-71
2023/12/03 06:11:56;;;;;;;28.33;10.02;;;0.90;99.90;;;;;;5116513;28;20031;-71
2023/12/03 06:14:22;;;;;;;29.13;11.05;;;0.80;99.90;;;;;;5116301;28;20024;-72
2023/12/03 06:16:48;;;;;;;27.58;10.48;;;0.80;99.90;;;;;;5116329;28;20028;-70
2023/12/03 06:19:13;;;;;;;31.02;11.10;;;0.80;99.90;;;;;;5116102;28;20038;-71
2023/12/03 06:21:39;;;;;;;28.20;10.63;;;0.80;99.90;;;;;;5116110;28;20097;-72
2023/12/03 06:24:05;;;;;;;23.25;10.15;;;0.70;99.90;;;;;;5116200;28;20024;-71
2023/12/03 06:26:31;;;;;;;28.90;11.18;;;0.70;99.90;;;;;;5115974;28;20044;-72
2023/12/03 06:28:57;;;;;;;21.00;9.27;;;0.70;99.90;;;;;;5114915;28;20024;-73
2023/12/03 06:31:23;;;;;;;29.25;12.02;;;0.60;99.90;;;;;;5116048;28;20025;-73
2023/12/03 06:33:48;;;;;;;29.60;10.95;;;0.60;99.90;;;;;;5115897;28;20027;-72
2023/12/03 06:36:14;;;;;;;30.10;10.95;;;0.60;99.90;;;;;;5115958;28;20443;-72
2023/12/03 06:38:40;;;;;;;30.38;10.73;;;0.60;99.90;;;;;;5115838;28;20032;-71
2023/12/03 06:41:05;;;;;;;28.67;11.52;;;0.60;99.90;;;;;;5115797;28;20032;-71
2023/12/03 06:43:31;;;;;;;26.75;9.73;;;0.60;99.90;;;;;;5115816;28;20028;-72
2023/12/03 06:45:59;;;;;;;31.80;10.35;;;0.60;99.90;;;;;;5115706;28;20024;-69
2023/12/03 06:48:24;;;;;;;25.23;10.82;;;0.60;99.90;;;;;;5115791;28;20024;-70
2023/12/03 06:50:50;;;;;;;26.65;10.35;;;0.50;99.90;;;;;;5115630;28;20021;-70
2023/12/03 06:53:16;;;;;;;26.75;9.88;;;0.50;99.90;;;;;;5115592;28;20044;-74
2023/12/03 06:55:42;;;;;;;29.40;9.52;;;0.50;99.90;;;;;;5115522;28;20043;-72
2023/12/03 06:58:08;;;;;;;28.55;10.70;;;0.50;99.90;;;;;;5115472;28;20028;-74
2023/12/03 07:00:33;;;;;;;25.65;8.77;;;0.50;99.90;;;;;;5115249;28;20119;-73
2023/12/03 07:02:59;;;;;;;29.55;10.63;;;0.50;99.90;;;;;;5115271;28;20032;-74
2023/12/03 07:05:25;;;;;;;26.58;10.23;;;0.50;99.90;;;;;;5115334;28;20033;-74
2023/12/03 07:07:51;;;;;;;27.05;10.07;;;0.50;99.90;;;;;;5115330;28;20024;-73
2023/12/03 07:10:18;;;;;;;24.95;9.60;;;0.50;99.90;;;;;;5114294;28;20016;-73
2023/12/03 07:12:43;;;;;;;27.65;10.52;;;0.50;99.90;;;;;;5115340;28;20035;-68
2023/12/03 07:15:10;;;;;;;27.52;10.02;;;0.50;99.90;;;;;;5115241;28;20028;-73
2023/12/03 07:17:35;;;;;;;28.40;10.32;;;0.50;99.90;;;;;;5115096;28;20024;-72
2023/12/03 07:20:01;;;;;;;26.27;10.98;;;0.40;99.90;;;;;;5112647;28;20043;-72
2023/12/03 07:22:27;;;;;;;29.52;10.32;;;0.50;99.90;;;;;;5113715;28;20088;-70
2023/12/03 07:24:53;;;;;;;27.00;11.02;;;0.40;99.90;;;;;;5114242;28;20032;-72
2023/12/03 07:27:19;;;;;;;28.20;10.10;;;0.40;99.90;;;;;;5114153;28;20051;-73
2023/12/03 07:29:45;;;;;;;23.90;9.13;;;0.50;99.90;;;;;;5113773;28;20016;-71
2023/12/03 07:32:11;;;;;;;31.45;10.13;;;0.50;99.90;;;;;;5115015;28;20020;-71
2023/12/03 07:34:36;;;;;;;27.00;11.40;;;0.50;99.90;;;;;;5114747;28;20028;-73
2023/12/03 07:37:02;;;;;;;29.02;9.43;;;0.50;99.90;;;;;;5114785;28;20084;-72
2023/12/03 07:39:28;;;;;;;30.55;10.10;;;0.50;99.90;;;;;;5114716;28;20028;-72
2023/12/03 07:41:54;;;;;;;25.75;9.50;;;0.50;99.90;;;;;;5114689;28;20024;-72
2023/12/03 07:44:21;;;;;;;29.33;9.85;;;0.50;99.90;;;;;;5100362;28;20033;-72
2023/12/03 07:46:47;;;;;;;27.27;10.57;;;0.50;99.90;;;;;;5093107;28;20032;-71
2023/12/03 07:49:12;;;;;;;26.83;10.20;;;0.50;99.90;;;;;;5092877;28;20058;-75
2023/12/03 07:51:38;;;;;;;31.25;10.48;;;0.50;99.90;;;;;;5097816;28;20024;-70
2023/12/03 07:54:04;;;;;;;29.50;10.82;;;0.50;99.90;;;;;;5109268;28;20032;-72
2023/12/03 07:56:37;;;;;;;24.65;10.48;;;0.50;99.90;;;;;;5112554;28;20020;-71
2023/12/03 07:59:03;;;;;;;27.75;9.63;;;0.60;99.90;;;;;;5113155;28;20028;-74
2023/12/03 08:01:29;;;;;;;26.55;9.68;;;0.60;99.90;;;;;;5113566;28;20022;-72
2023/12/03 08:03:54;;;;;;;31.05;11.25;;;0.60;99.90;;;;;;5112412;28;20029;-72
2023/12/03 08:06:20;;;;;;;30.95;10.25;;;0.60;99.90;;;;;;5094668;28;20033;-72
2023/12/03 08:08:46;;;;;;;32.85;11.63;;;0.60;99.90;;;;;;5092733;28;20025;-73
2023/12/03 08:11:11;;;;;;;30.65;10.65;;;0.70;99.90;;;;;;5093802;28;20028;-73
2023/12/03 08:13:37;;;;;;;31.67;11.73;;;0.70;99.90;;;;;;5093749;28;20040;-72
2023/12/03 08:16:04;;;;;;;25.75;10.55;;;0.70;99.90;;;;;;5092750;28;20088;-74
2023/12/03 08:18:31;;;;;;;24.17;10.85;;;0.80;99.90;;;;;;5093778;28;20099;-73
2023/12/03 08:20:57;;;;;;;29.45;10.82;;;0.80;99.90;;;;;;5093482;28;20029;-74
2023/12/03 08:23:22;;;;;;;26.08;10.65;;;0.80;99.90;;;;;;5093532;28;20455;-72
2023/12/03 08:25:48;;;;;;;29.58;12.32;;;0.90;99.90;;;;;;5093427;28;20020;-72
2023/12/03 08:28:14;;;;;;;24.35;9.13;;;0.90;99.90;;;;;;5093318;28;20044;-73
2023/12/03 08:30:40;;;;;;;27.83;10.48;;;1.00;99.90;;;;;;5093207;28;20084;-72
2023/12/03 08:33:05;;;;;;;26.42;10.30;;;1.10;99.90;;;;;;5093404;28;20029;-71
2023/12/03 08:35:31;;;;;;;29.35;10.50;;;1.10;99.90;;;;;;5093279;28;20036;-72
2023/12/03 08:37:57;;;;;;;24.20;9.50;;;1.10;99.90;;;;;;5093286;28;20490;-73
2023/12/03 08:40:23;;;;;;;24.67;10.25;;;1.20;99.90;;;;;;5093207;28;20031;-73
2023/12/03 08:42:49;;;;;;;25.00;10.35;;;1.20;99.90;;;;;;5093217;28;20016;-73
2023/12/03 08:45:15;;;;;;;27.98;10.68;;;1.30;99.90;;;;;;5093045;28;20024;-73
2023/12/03 08:47:41;;;;;;;27.60;10.73;;;1.30;99.90;;;;;;5092229;28;20055;-73
2023/12/03 08:50:07;;;;;;;27.27;11.05;;;1.40;99.90;;;;;;5092140;28;20021;-73
2023/12/03 08:52:33;;;;;;;30.50;9.95;;;1.40;99.90;;;;;;5093067;28;20035;-73
2023/12/03 08:54:59;;;;;;;29.80;10.38;;;1.50;99.90;;;;;;5092820;28;20070;-72
2023/12/03 08:57:25;;;;;;;28.90;9.88;;;1.50;99.90;;;;;;5092913;28;20036;-73
2023/12/03 08:59:53;;;;;;;25.00;8.43;;;1.60;99.90;;;;;;5092609;28;20048;-72
2023/12/03 09:02:22;;;;;;;29.23;10.45;;;1.60;99.90;;;;;;5092870;28;20020;-73
2023/12/03 09:04:50;;;;;;;29.52;10.50;;;1.60;99.90;;;;;;5092815;28;20024;-71
2023/12/03 09:07:15;;;;;;;27.92;10.25;;;1.70;99.90;;;;;;5092856;28;20059;-73
2023/12/03 09:09:42;;;;;;;24.90;9.68;;;1.70;99.90;;;;;;5092845;28;20013;-73
2023/12/03 09:12:08;;;;;;;26.95;9.77;;;1.70;99.90;;;;;;5092731;28;20021;-73
2023/12/03 09:14:33;;;;;;;26.70;9.90;;;1.70;99.90;;;;;;5092699;28;20033;-72
2023/12/03 09:16:59;;;;;;;27.65;10.13;;;1.70;99.90;;;;;;5092698;28;20040;-72
2023/12/03 09:19:25;;;;;;;23.90;10.10;;;1.70;99.90;;;;;;5092526;28;20040;-72
2023/12/03 09:21:50;;;;;;;23.15;8.70;;;1.80;99.90;;;;;;5092574;28;20062;-72
2023/12/03 09:24:16;;;;;;;27.52;9.65;;;1.80;99.90;;;;;;5092540;28;20032;-73
2023/12/03 09:26:46;;;;;;;19.13;7.93;;;1.80;99.90;;;;;;5092298;28;20036;-74
2023/12/03 09:29:13;;;;;;;24.85;8.95;;;1.80;99.90;;;;;;5092343;28;20016;-72
2023/12/03 09:31:42;;;;;;;31.67;9.98;;;1.90;99.90;;;;;;5091475;28;20028;-73
2023/12/03 09:34:08;;;;;;;21.92;9.20;;;1.90;99.90;;;;;;5092092;28;20084;-73
2023/12/03 09:36:34;;;;;;;23.17;9.52;;;1.90;99.90;;;;;;5091528;28;20058;-73
2023/12/03 09:39:01;;;;;;;25.98;9.57;;;1.90;99.90;;;;;;5092385;28;20016;-73
2023/12/03 09:41:29;;;;;;;23.73;9.90;;;2.00;99.90;;;;;;5092471;28;20068;-72
2023/12/03 09:44:03;;;;;;;27.73;9.93;;;2.00;99.90;;;;;;5092410;28;20063;-73
2023/12/03 09:46:31;;;;;;;25.83;10.43;;;2.00;99.90;;;;;;5092296;28;20031;-73
2023/12/03 09:49:01;;;;;;;25.35;9.80;;;2.10;99.90;;;;;;5092394;28;20029;-73
2023/12/03 09:51:28;;;;;;;27.02;10.45;;;2.20;99.90;;;;;;5092408;28;20024;-72
2023/12/03 09:53:59;;;;;;;27.38;10.05;;;2.30;99.90;;;;;;5091050;28;20021;-74
2023/12/03 09:56:25;;;;;;;25.17;8.98;;;2.30;99.90;;;;;;5091971;28;20418;-74
2023/12/03 09:58:52;;;;;;;22.15;9.32;;;2.40;99.90;;;;;;5091918;28;20082;-72
2023/12/03 10:01:18;;;;;;;24.77;10.05;;;2.50;99.90;;;;;;5091716;28;20029;-73
2023/12/03 10:03:44;;;;;;;26.92;10.93;;;2.50;99.90;;;;;;5091896;28;20054;-73
2023/12/03 10:06:11;;;;;;;22.92;9.73;;;2.60;99.90;;;;;;5091796;28;20080;-73
2023/12/03 10:08:39;;;;;;;23.85;9.30;;;2.60;99.90;;;;;;5096316;28;20028;-75
2023/12/03 10:11:06;;;;;;;25.33;9.60;;;2.60;99.90;;;;;;5096328;28;20008;-69
2023/12/03 10:13:34;;;;;;;26.60;10.27;;;2.70;99.90;;;;;;5090107;28;20048;-73
2023/12/03 10:16:00;;;;;;;20.70;8.07;;;2.70;99.90;;;;;;5092847;28;20131;-71
2023/12/03 10:18:25;;;;;;;26.05;9.13;;;2.70;99.90;;;;;;5088535;28;20036;-72
2023/12/03 10:21:11;;;;;;;22.08;9.63;;;2.70;99.90;;;;;;5089590;28;20064;-72
2023/12/03 10:23:38;;;;;;;22.42;8.65;;;2.70;99.90;;;;;;5090208;28;20040;-72
2023/12/03 10:26:10;;;;;;;23.00;9.40;;;2.80;99.90;;;;;;5087821;28;20016;-72
2023/12/03 10:28:36;;;;;;;23.02;9.40;;;2.80;99.90;;;;;;5090435;28;20087;-68
2023/12/03 10:31:02;;;;;;;23.70;9.75;;;2.80;99.90;;;;;;5090717;28;20113;-71
2023/12/03 10:33:27;;;;;;;27.10;9.73;;;2.90;99.90;;;;;;5094332;28;20143;-71
2023/12/03 10:36:02;;;;;;;20.50;8.85;;;2.90;99.90;;;;;;5089490;28;20096;-71
2023/12/03 10:38:39;;;;;;;23.95;9.38;;;3.00;99.90;;;;;;5090933;28;20020;-70
2023/12/03 10:41:09;;;;;;;25.05;9.73;;;3.00;99.90;;;;;;5089303;28;20032;-68
2023/12/03 10:43:35;;;;;;;17.98;7.97;;;3.10;99.90;;;;;;5093313;28;20048;-73
2023/12/03 10:46:13;;;;;;;20.77;8.77;;;3.10;99.90;;;;;;5093177;28;20020;-69
2023/12/03 10:48:39;;;;;;;22.20;9.02;;;3.10;99.90;;;;;;5099470;28;20043;-69
2023/12/03 10:51:09;;;;;;;23.58;8.52;;;3.20;99.90;;;;;;5099973;28;20040;-70
2023/12/03 10:53:36;;;;;;;20.75;8.15;;;3.20;99.90;;;;;;5094131;28;20032;-73
2023/12/03 10:56:06;;;;;;;21.00;8.63;;;3.20;99.90;;;;;;5099013;28;20028;-71
2023/12/03 10:58:43;;;;;;;21.25;8.77;;;3.20;99.90;;;;;;5096183;28;20040;-68
2023/12/03 11:01:27;;;;;;;22.05;8.32;;;3.20;99.90;;;;;;5094844;28;20044;-70
2023/12/03 11:04:16;;;;;;;21.42;8.30;;;3.20;99.90;;;;;;5100863;28;20023;-74
2023/12/03 11:06:43;;;;;;;21.33;8.70;;;3.20;99.90;;;;;;5100777;28;20040;-72
2023/12/03 11:09:09;;;;;;;21.30;8.90;;;3.30;99.90;;;;;;5101094;28;20076;-69
2023/12/03 11:11:38;;;;;;;30.33;10.00;;;3.30;99.90;;;;;;5091711;28;20070;-70
2023/12/03 11:14:04;;;;;;;21.67;8.63;;;3.40;99.90;;;;;;5097597;28;20036;-71
2023/12/03 11:17:00;;;;;;;24.02;8.98;;;3.40;99.90;;;;;;5100087;28;20041;-71
2023/12/03 11:19:29;;;;;;;24.15;8.73;;;3.40;99.90;;;;;;5099773;28;20020;-69
2023/12/03 11:22:42;;;;;;;22.33;8.43;;;3.40;99.90;;;;;;5097072;28;20067;-72
2023/12/03 11:25:12;;;;;;;21.67;8.10;;;3.50;99.90;;;;;;5051686;28;20037;-70
2023/12/03 11:27:45;;;;;;;19.83;7.57;;;3.50;99.90;;;;;;5095739;28;20041;-69
2023/12/03 11:30:13;;;;;;;25.67;8.77;;;3.50;99.90;;;;;;5095427;28;20099;-73
2023/12/03 11:32:40;;;;;;;20.08;8.73;;;3.50;99.80;;;;;;5098997;28;20024;-71
2023/12/03 11:35:13;;;;;;;25.30;8.07;;;3.50;99.70;;;;;;5092827;28;20058;-71
2023/12/03 11:37:45;;;;;;;21.70;8.70;;;3.50;99.90;;;;;;5095978;28;20024;-71
2023/12/03 11:40:16;;;;;;;25.02;8.38;;;3.50;99.90;;;;;;5097855;28;20091;-73
2023/12/03 11:42:47;;;;;;;18.58;7.63;;;3.60;99.90;;;;;;5092179;28;20017;-73
2023/12/03 11:45:30;;;;;;;24.77;8.80;;;3.60;99.90;;;;;;5092582;28;20031;-69
2023/12/03 11:48:10;;;;;;;19.02;8.27;;;3.60;99.70;;;;;;5112256;28;20025;-72
2023/12/03 11:50:37;;;;;;;21.75;8.18;;;3.60;99.90;;;;;;5112786;28;20034;-73
2023/12/03 11:53:04;;;;;;;21.17;8.77;;;3.60;99.80;;;;;;5113956;28;20012;-72
2023/12/03 11:55:34;;;;;;;21.05;8.43;;;3.70;99.90;;;;;;5113387;28;20577;-72
2023/12/03 11:58:03;;;;;;;20.58;7.50;;;3.70;99.90;;;;;;5114076;28;20024;-72
2023/12/03 12:00:28;;;;;;;21.20;8.82;;;3.80;99.90;;;;;;5114077;28;20050;-72
2023/12/03 12:02:54;;;;;;;22.58;8.93;;;3.80;99.70;;;;;;5113865;28;20028;-73
2023/12/03 12:05:19;;;;;;;20.75;8.60;;;3.90;99.90;;;;;;5113567;28;20036;-72
2023/12/03 12:08:02;;;;;;;23.25;8.93;;;4.00;99.90;;;;;;5114020;28;20085;-72
2023/12/03 12:10:29;;;;;;;22.13;8.70;;;4.00;99.80;;;;;;5114066;28;20024;-73
2023/12/03 12:12:56;;;;;;;21.10;8.27;;;4.10;99.90;;;;;;5113785;28;20040;-74
2023/12/03 12:15:23;;;;;;;20.52;8.48;;;4.20;99.80;;;;;;5113666;28;20039;-72
2023/12/03 12:17:48;;;;;;;20.60;9.20;;;4.30;99.60;;;;;;5113567;28;20034;-73
2023/12/03 12:20:28;;;;;;;22.83;8.05;;;4.30;99.70;;;;;;5113947;28;20028;-73
2023/12/03 12:22:54;;;;;;;19.27;8.18;;;4.40;99.40;;;;;;5113580;28;20073;-72
2023/12/03 12:25:21;;;;;;;24.80;9.02;;;4.50;99.60;;;;;;5113708;28;20711;-73
2023/12/03 12:27:51;;;;;;;22.02;8.82;;;4.60;99.30;;;;;;5113644;28;20064;-73
2023/12/03 12:30:19;;;;;;;18.45;7.63;;;4.60;99.20;;;;;;5113531;28;20020;-73
2023/12/03 12:32:45;;;;;;;18.48;7.82;;;4.70;99.40;;;;;;5113697;28;20008;-73
2023/12/03 12:35:12;;;;;;;21.98;8.15;;;4.90;99.30;;;;;;5113726;28;20024;-72
2023/12/03 12:37:38;;;;;;;18.52;7.38;;;5.00;99.10;;;;;;5112689;28;20081;-71
2023/12/03 12:40:10;;;;;;;15.75;7.38;;;5.10;98.50;;;;;;5106555;28;20028;-71